sensor_id;sensor_type;location;lat;lon;timestamp;pressure;altitude;pressure_sealevel;temperature;humidity
78431;BME280;67727;50.236;22.452;2023-04-25T00:00:02;98506.99;;;13.00;65.39
78431;BME280;67727;50.236;22.452;2023-04-25T00:02:30;98510.40;;;12.97;65.77
78431;BME280;67727;50.236;22.452;2023-04-25T00:04:59;98504.17;;;12.92;65.99
78431;BME280;67727;50.236;22.452;2023-04-25T00:07:26;98502.31;;;12.88;66.07
78431;BME280;67727;50.236;22.452;2023-04-25T00:09:53;98496.64;;;12.85;66.31
78431;BME280;67727;50.236;22.452;2023-04-25T00:12:20;98495.85;;;12.82;66.25
78431;BME280;67727;50.236;22.452;2023-04-25T00:14:50;98490.31;;;12.79;66.61
78431;BME280;67727;50.236;22.452;2023-04-25T00:17:17;98486.23;;;12.79;66.54
78431;BME280;67727;50.236;22.452;2023-04-25T00:19:45;98483.23;;;12.81;66.51
78431;BME280;67727;50.236;22.452;2023-04-25T00:22:12;98481.19;;;12.82;66.88
78431;BME280;67727;50.236;22.452;2023-04-25T00:24:39;98479.09;;;12.81;67.01
78431;BME280;67727;50.236;22.452;2023-04-25T00:27:06;98478.23;;;12.79;67.11
78431;BME280;67727;50.236;22.452;2023-04-25T00:29:33;98475.20;;;12.77;67.35
78431;BME280;67727;50.236;22.452;2023-04-25T00:32:01;98476.63;;;12.75;67.36
78431;BME280;67727;50.236;22.452;2023-04-25T00:34:28;98474.40;;;12.72;67.38
78431;BME280;67727;50.236;22.452;2023-04-25T00:36:55;98473.98;;;12.69;67.79
78431;BME280;67727;50.236;22.452;2023-04-25T00:39:24;98474.29;;;12.66;67.92
78431;BME280;67727;50.236;22.452;2023-04-25T00:41:51;98469.06;;;12.66;68.26
78431;BME280;67727;50.236;22.452;2023-04-25T00:44:21;98466.10;;;12.67;68.63
78431;BME280;67727;50.236;22.452;2023-04-25T00:46:48;98459.80;;;12.69;68.68
78431;BME280;67727;50.236;22.452;2023-04-25T00:49:16;98458.00;;;12.69;68.83
78431;BME280;67727;50.236;22.452;2023-04-25T00:51:43;98459.46;;;12.70;68.64
78431;BME280;67727;50.236;22.452;2023-04-25T00:54:12;98455.71;;;12.69;68.82
78431;BME280;67727;50.236;22.452;2023-04-25T00:56:39;98456.36;;;12.68;69.14
78431;BME280;67727;50.236;22.452;2023-04-25T00:59:06;98455.27;;;12.66;69.17
78431;BME280;67727;50.236;22.452;2023-04-25T01:01:33;98457.01;;;12.62;69.50
78431;BME280;67727;50.236;22.452;2023-04-25T01:04:01;98454.64;;;12.60;69.83
78431;BME280;67727;50.236;22.452;2023-04-25T01:06:28;98451.00;;;12.60;69.42
78431;BME280;67727;50.236;22.452;2023-04-25T01:08:56;98451.45;;;12.60;69.58
78431;BME280;67727;50.236;22.452;2023-04-25T01:11:22;98453.09;;;12.60;69.83
78431;BME280;67727;50.236;22.452;2023-04-25T01:13:49;98451.62;;;12.59;69.63
78431;BME280;67727;50.236;22.452;2023-04-25T01:16:16;98451.86;;;12.56;69.77
78431;BME280;67727;50.236;22.452;2023-04-25T01:18:43;98451.80;;;12.54;69.96
78431;BME280;67727;50.236;22.452;2023-04-25T01:21:12;98450.17;;;12.49;70.18
78431;BME280;67727;50.236;22.452;2023-04-25T01:23:40;98449.23;;;12.45;70.47
78431;BME280;67727;50.236;22.452;2023-04-25T01:26:11;98447.70;;;12.43;70.58
78431;BME280;67727;50.236;22.452;2023-04-25T01:28:39;98446.20;;;12.42;70.63
78431;BME280;67727;50.236;22.452;2023-04-25T01:31:08;98448.02;;;12.43;70.59
78431;BME280;67727;50.236;22.452;2023-04-25T01:33:35;98449.65;;;12.45;70.79
78431;BME280;67727;50.236;22.452;2023-04-25T01:36:02;98446.64;;;12.45;71.07
78431;BME280;67727;50.236;22.452;2023-04-25T01:38:30;98443.36;;;12.46;70.78
78431;BME280;67727;50.236;22.452;2023-04-25T01:40:56;98438.95;;;12.46;70.77
78431;BME280;67727;50.236;22.452;2023-04-25T01:43:24;98435.16;;;12.45;70.86
78431;BME280;67727;50.236;22.452;2023-04-25T01:45:51;98438.76;;;12.45;71.03
78431;BME280;67727;50.236;22.452;2023-04-25T01:48:18;98435.69;;;12.42;71.16
78431;BME280;67727;50.236;22.452;2023-04-25T01:50:45;98433.95;;;12.39;71.32
78431;BME280;67727;50.236;22.452;2023-04-25T01:53:13;98435.95;;;12.36;71.17
78431;BME280;67727;50.236;22.452;2023-04-25T01:55:41;98434.77;;;12.36;71.51
78431;BME280;67727;50.236;22.452;2023-04-25T01:58:08;98433.04;;;12.37;71.68
78431;BME280;67727;50.236;22.452;2023-04-25T02:00:36;98430.78;;;12.38;71.41
78431;BME280;67727;50.236;22.452;2023-04-25T02:03:07;98431.77;;;12.37;71.71
78431;BME280;67727;50.236;22.452;2023-04-25T02:05:36;98426.19;;;12.35;71.89
78431;BME280;67727;50.236;22.452;2023-04-25T02:08:05;98427.99;;;12.34;72.14
78431;BME280;67727;50.236;22.452;2023-04-25T02:10:33;98423.79;;;12.33;72.00
78431;BME280;67727;50.236;22.452;2023-04-25T02:13:00;98423.04;;;12.34;71.86
78431;BME280;67727;50.236;22.452;2023-04-25T02:15:27;98421.29;;;12.34;72.34
78431;BME280;67727;50.236;22.452;2023-04-25T02:17:53;98418.67;;;12.33;72.61
78431;BME280;67727;50.236;22.452;2023-04-25T02:20:21;98413.59;;;12.32;72.56
78431;BME280;67727;50.236;22.452;2023-04-25T02:22:51;98406.76;;;12.27;72.58
78431;BME280;67727;50.236;22.452;2023-04-25T02:25:21;98404.11;;;12.22;72.64
78431;BME280;67727;50.236;22.452;2023-04-25T02:27:48;98408.27;;;12.18;72.78
78431;BME280;67727;50.236;22.452;2023-04-25T02:30:15;98400.46;;;12.14;72.51
78431;BME280;67727;50.236;22.452;2023-04-25T02:32:42;98399.89;;;12.13;72.81
78431;BME280;67727;50.236;22.452;2023-04-25T02:35:09;98402.27;;;12.13;72.82
78431;BME280;67727;50.236;22.452;2023-04-25T02:37:37;98400.63;;;12.14;72.91
78431;BME280;67727;50.236;22.452;2023-04-25T02:40:05;98402.20;;;12.17;73.03
78431;BME280;67727;50.236;22.452;2023-04-25T02:42:33;98401.64;;;12.16;73.06
78431;BME280;67727;50.236;22.452;2023-04-25T02:45:00;98396.58;;;12.13;73.38
78431;BME280;67727;50.236;22.452;2023-04-25T02:47:27;98396.31;;;12.09;73.63
78431;BME280;67727;50.236;22.452;2023-04-25T02:49:54;98394.18;;;12.00;74.29
78431;BME280;67727;50.236;22.452;2023-04-25T02:52:23;98392.27;;;11.94;73.97
78431;BME280;67727;50.236;22.452;2023-04-25T02:54:51;98389.91;;;11.91;74.26
78431;BME280;67727;50.236;22.452;2023-04-25T02:57:20;98385.41;;;11.90;74.42
78431;BME280;67727;50.236;22.452;2023-04-25T02:59:47;98387.67;;;11.91;74.40
78431;BME280;67727;50.236;22.452;2023-04-25T03:02:13;98383.41;;;11.92;74.45
78431;BME280;67727;50.236;22.452;2023-04-25T03:04:41;98386.06;;;11.92;74.57
78431;BME280;67727;50.236;22.452;2023-04-25T03:07:09;98383.70;;;11.89;74.70
78431;BME280;67727;50.236;22.452;2023-04-25T03:09:36;98381.41;;;11.86;74.77
78431;BME280;67727;50.236;22.452;2023-04-25T03:12:03;98378.06;;;11.84;74.85
78431;BME280;67727;50.236;22.452;2023-04-25T03:14:30;98378.73;;;11.83;74.43
78431;BME280;67727;50.236;22.452;2023-04-25T03:16:56;98377.80;;;11.85;74.67
78431;BME280;67727;50.236;22.452;2023-04-25T03:19:23;98377.94;;;11.84;75.17
78431;BME280;67727;50.236;22.452;2023-04-25T03:21:50;98376.35;;;11.82;74.78
78431;BME280;67727;50.236;22.452;2023-04-25T03:24:17;98381.21;;;11.82;75.05
78431;BME280;67727;50.236;22.452;2023-04-25T03:26:44;98374.83;;;11.79;75.07
78431;BME280;67727;50.236;22.452;2023-04-25T03:29:11;98377.75;;;11.76;75.35
78431;BME280;67727;50.236;22.452;2023-04-25T03:31:38;98379.13;;;11.74;75.44
78431;BME280;67727;50.236;22.452;2023-04-25T03:34:04;98379.39;;;11.74;75.57
78431;BME280;67727;50.236;22.452;2023-04-25T03:36:34;98378.82;;;11.76;75.31
78431;BME280;67727;50.236;22.452;2023-04-25T03:39:00;98379.94;;;11.79;75.37
78431;BME280;67727;50.236;22.452;2023-04-25T03:41:27;98374.60;;;11.82;75.24
78431;BME280;67727;50.236;22.452;2023-04-25T03:43:54;98372.21;;;11.84;75.95
78431;BME280;67727;50.236;22.452;2023-04-25T03:46:21;98378.25;;;11.85;75.28
78431;BME280;67727;50.236;22.452;2023-04-25T03:48:48;98373.92;;;11.85;75.52
78431;BME280;67727;50.236;22.452;2023-04-25T03:51:17;98372.03;;;11.85;75.77
78431;BME280;67727;50.236;22.452;2023-04-25T03:53:44;98369.77;;;11.89;75.72
78431;BME280;67727;50.236;22.452;2023-04-25T03:56:11;98369.33;;;11.92;75.75
78431;BME280;67727;50.236;22.452;2023-04-25T03:58:37;98371.05;;;11.94;75.56
78431;BME280;67727;50.236;22.452;2023-04-25T04:01:04;98373.55;;;11.96;75.52
78431;BME280;67727;50.236;22.452;2023-04-25T04:03:34;98374.64;;;11.97;75.58
78431;BME280;67727;50.236;22.452;2023-04-25T04:06:04;98375.57;;;11.98;76.01
78431;BME280;67727;50.236;22.452;2023-04-25T04:08:32;98374.08;;;11.96;76.04
78431;BME280;67727;50.236;22.452;2023-04-25T04:11:02;98378.23;;;11.95;75.87
78431;BME280;67727;50.236;22.452;2023-04-25T04:13:29;98378.73;;;11.97;75.90
78431;BME280;67727;50.236;22.452;2023-04-25T04:15:58;98379.95;;;11.99;76.01
78431;BME280;67727;50.236;22.452;2023-04-25T04:18:25;98383.17;;;12.01;76.17
78431;BME280;67727;50.236;22.452;2023-04-25T04:20:52;98379.83;;;12.05;76.08
78431;BME280;67727;50.236;22.452;2023-04-25T04:23:19;98380.81;;;12.08;75.84
78431;BME280;67727;50.236;22.452;2023-04-25T04:25:47;98379.70;;;12.11;75.55
78431;BME280;67727;50.236;22.452;2023-04-25T04:28:14;98380.64;;;12.14;75.56
78431;BME280;67727;50.236;22.452;2023-04-25T04:30:42;98378.64;;;12.16;75.80
78431;BME280;67727;50.236;22.452;2023-04-25T04:33:12;98376.20;;;12.18;75.70
78431;BME280;67727;50.236;22.452;2023-04-25T04:35:41;98375.47;;;12.22;75.93
78431;BME280;67727;50.236;22.452;2023-04-25T04:38:08;98371.86;;;12.26;75.54
78431;BME280;67727;50.236;22.452;2023-04-25T04:40:37;98374.73;;;12.32;75.38
78431;BME280;67727;50.236;22.452;2023-04-25T04:43:04;98369.48;;;12.35;75.27
78431;BME280;67727;50.236;22.452;2023-04-25T04:45:32;98370.08;;;12.40;75.53
78431;BME280;67727;50.236;22.452;2023-04-25T04:47:59;98372.11;;;12.42;75.34
78431;BME280;67727;50.236;22.452;2023-04-25T04:50:26;98368.84;;;12.42;75.70
78431;BME280;67727;50.236;22.452;2023-04-25T04:52:53;98365.33;;;12.42;75.75
78431;BME280;67727;50.236;22.452;2023-04-25T04:55:21;98368.61;;;12.41;75.82
78431;BME280;67727;50.236;22.452;2023-04-25T04:57:49;98370.04;;;12.40;76.09
78431;BME280;67727;50.236;22.452;2023-04-25T05:00:16;98367.73;;;12.41;75.71
78431;BME280;67727;50.236;22.452;2023-04-25T05:02:43;98372.20;;;12.42;75.63
78431;BME280;67727;50.236;22.452;2023-04-25T05:05:12;98372.29;;;12.44;75.79
78431;BME280;67727;50.236;22.452;2023-04-25T05:07:39;98373.41;;;12.44;75.46
78431;BME280;67727;50.236;22.452;2023-04-25T05:10:07;98373.31;;;12.44;75.79
78431;BME280;67727;50.236;22.452;2023-04-25T05:12:36;98377.55;;;12.45;76.00
78431;BME280;67727;50.236;22.452;2023-04-25T05:15:03;98372.50;;;12.47;75.97
78431;BME280;67727;50.236;22.452;2023-04-25T05:17:32;98371.98;;;12.51;75.80
78431;BME280;67727;50.236;22.452;2023-04-25T05:19:59;98374.30;;;12.56;75.83
78431;BME280;67727;50.236;22.452;2023-04-25T05:22:26;98373.05;;;12.60;75.87
78431;BME280;67727;50.236;22.452;2023-04-25T05:24:53;98369.38;;;12.59;76.31
78431;BME280;67727;50.236;22.452;2023-04-25T05:27:20;98367.58;;;12.61;76.47
78431;BME280;67727;50.236;22.452;2023-04-25T05:29:46;98367.96;;;12.65;76.49
78431;BME280;67727;50.236;22.452;2023-04-25T05:32:13;98371.33;;;12.67;76.35
78431;BME280;67727;50.236;22.452;2023-04-25T05:34:40;98369.69;;;12.69;76.17
78431;BME280;67727;50.236;22.452;2023-04-25T05:37:08;98369.52;;;12.71;76.15
78431;BME280;67727;50.236;22.452;2023-04-25T05:39:35;98371.38;;;12.74;75.95
78431;BME280;67727;50.236;22.452;2023-04-25T05:42:02;98373.14;;;12.77;75.83
78431;BME280;67727;50.236;22.452;2023-04-25T05:44:30;98371.20;;;12.78;75.79
78431;BME280;67727;50.236;22.452;2023-04-25T05:46:57;98372.25;;;12.79;75.87
78431;BME280;67727;50.236;22.452;2023-04-25T05:49:24;98372.39;;;12.81;76.11
78431;BME280;67727;50.236;22.452;2023-04-25T05:51:51;98370.69;;;12.84;76.17
78431;BME280;67727;50.236;22.452;2023-04-25T05:54:18;98370.77;;;12.86;75.89
78431;BME280;67727;50.236;22.452;2023-04-25T05:56:45;98370.33;;;12.91;76.40
78431;BME280;67727;50.236;22.452;2023-04-25T05:59:12;98370.78;;;12.90;76.72
78431;BME280;67727;50.236;22.452;2023-04-25T06:01:39;98373.63;;;12.91;76.24
78431;BME280;67727;50.236;22.452;2023-04-25T06:04:06;98368.52;;;12.93;76.07
78431;BME280;67727;50.236;22.452;2023-04-25T06:06:33;98366.30;;;12.95;76.09
78431;BME280;67727;50.236;22.452;2023-04-25T06:09:00;98366.32;;;13.00;75.79
78431;BME280;67727;50.236;22.452;2023-04-25T06:11:27;98364.48;;;13.04;75.68
78431;BME280;67727;50.236;22.452;2023-04-25T06:13:55;98366.59;;;13.10;75.83
78431;BME280;67727;50.236;22.452;2023-04-25T06:16:22;98365.56;;;13.13;75.94
78431;BME280;67727;50.236;22.452;2023-04-25T06:18:49;98364.68;;;13.15;75.75
78431;BME280;67727;50.236;22.452;2023-04-25T06:21:15;98366.96;;;13.18;75.69
78431;BME280;67727;50.236;22.452;2023-04-25T06:23:42;98368.95;;;13.19;75.50
78431;BME280;67727;50.236;22.452;2023-04-25T06:26:09;98365.97;;;13.19;75.29
78431;BME280;67727;50.236;22.452;2023-04-25T06:28:36;98367.65;;;13.18;75.59
78431;BME280;67727;50.236;22.452;2023-04-25T06:31:03;98364.19;;;13.18;75.64
78431;BME280;67727;50.236;22.452;2023-04-25T06:33:29;98364.52;;;13.18;75.61
78431;BME280;67727;50.236;22.452;2023-04-25T06:35:56;98364.00;;;13.19;75.59
78431;BME280;67727;50.236;22.452;2023-04-25T06:38:23;98362.70;;;13.22;75.69
78431;BME280;67727;50.236;22.452;2023-04-25T06:40:50;98363.96;;;13.24;75.87
78431;BME280;67727;50.236;22.452;2023-04-25T06:43:17;98363.31;;;13.26;75.66
78431;BME280;67727;50.236;22.452;2023-04-25T06:45:44;98365.24;;;13.26;75.50
78431;BME280;67727;50.236;22.452;2023-04-25T06:48:11;98360.20;;;13.27;75.53
78431;BME280;67727;50.236;22.452;2023-04-25T06:50:38;98361.13;;;13.29;75.53
78431;BME280;67727;50.236;22.452;2023-04-25T06:53:05;98360.70;;;13.31;75.60
78431;BME280;67727;50.236;22.452;2023-04-25T06:55:31;98361.64;;;13.35;75.51
78431;BME280;67727;50.236;22.452;2023-04-25T06:57:58;98358.58;;;13.38;75.51
78431;BME280;67727;50.236;22.452;2023-04-25T07:00:25;98360.42;;;13.41;75.39
78431;BME280;67727;50.236;22.452;2023-04-25T07:02:52;98357.50;;;13.42;75.57
78431;BME280;67727;50.236;22.452;2023-04-25T07:05:21;98359.91;;;13.42;75.35
78431;BME280;67727;50.236;22.452;2023-04-25T07:07:48;98360.67;;;13.43;75.35
78431;BME280;67727;50.236;22.452;2023-04-25T07:10:16;98361.83;;;13.45;75.25
78431;BME280;67727;50.236;22.452;2023-04-25T07:12:42;98362.04;;;13.47;75.21
78431;BME280;67727;50.236;22.452;2023-04-25T07:15:09;98362.49;;;13.50;75.26
78431;BME280;67727;50.236;22.452;2023-04-25T07:17:38;98361.35;;;13.51;75.46
78431;BME280;67727;50.236;22.452;2023-04-25T07:20:05;98361.29;;;13.53;75.38
78431;BME280;67727;50.236;22.452;2023-04-25T07:22:32;98362.86;;;13.55;75.32
78431;BME280;67727;50.236;22.452;2023-04-25T07:24:59;98362.50;;;13.57;74.92
78431;BME280;67727;50.236;22.452;2023-04-25T07:27:26;98362.96;;;13.58;75.13
78431;BME280;67727;50.236;22.452;2023-04-25T07:29:53;98364.62;;;13.60;75.16
78431;BME280;67727;50.236;22.452;2023-04-25T07:32:20;98363.42;;;13.64;75.21
78431;BME280;67727;50.236;22.452;2023-04-25T07:34:47;98363.02;;;13.66;75.18
78431;BME280;67727;50.236;22.452;2023-04-25T07:37:14;98363.41;;;13.70;75.24
78431;BME280;67727;50.236;22.452;2023-04-25T07:39:41;98366.74;;;13.73;75.20
78431;BME280;67727;50.236;22.452;2023-04-25T07:42:10;98364.54;;;13.76;75.18
78431;BME280;67727;50.236;22.452;2023-04-25T07:44:37;98364.67;;;13.80;75.19
78431;BME280;67727;50.236;22.452;2023-04-25T07:47:08;98366.17;;;13.82;75.06
78431;BME280;67727;50.236;22.452;2023-04-25T07:49:36;98363.59;;;13.83;75.40
78431;BME280;67727;50.236;22.452;2023-04-25T07:52:04;98365.88;;;13.86;75.35
78431;BME280;67727;50.236;22.452;2023-04-25T07:54:32;98365.52;;;13.89;74.99
78431;BME280;67727;50.236;22.452;2023-04-25T07:56:59;98365.30;;;13.91;74.92
78431;BME280;67727;50.236;22.452;2023-04-25T07:59:26;98364.86;;;13.93;75.00
78431;BME280;67727;50.236;22.452;2023-04-25T08:01:55;98368.77;;;13.93;75.13
78431;BME280;67727;50.236;22.452;2023-04-25T08:04:24;98366.45;;;13.92;74.88
78431;BME280;67727;50.236;22.452;2023-04-25T08:06:52;98371.98;;;13.89;74.72
78431;BME280;67727;50.236;22.452;2023-04-25T08:09:20;98370.42;;;13.84;74.67
78431;BME280;67727;50.236;22.452;2023-04-25T08:11:47;98372.67;;;13.82;74.80
78431;BME280;67727;50.236;22.452;2023-04-25T08:14:14;98367.27;;;13.79;74.76
78431;BME280;67727;50.236;22.452;2023-04-25T08:16:41;98372.01;;;13.79;74.73
78431;BME280;67727;50.236;22.452;2023-04-25T08:19:08;98372.63;;;13.83;74.88
78431;BME280;67727;50.236;22.452;2023-04-25T08:21:36;98373.33;;;13.86;74.88
78431;BME280;67727;50.236;22.452;2023-04-25T08:24:03;98371.34;;;13.92;75.48
78431;BME280;67727;50.236;22.452;2023-04-25T08:26:30;98372.02;;;13.98;75.74
78431;BME280;67727;50.236;22.452;2023-04-25T08:28:57;98370.16;;;14.05;75.25
78431;BME280;67727;50.236;22.452;2023-04-25T08:31:24;98372.77;;;14.14;75.09
78431;BME280;67727;50.236;22.452;2023-04-25T08:33:50;98370.33;;;14.26;74.61
78431;BME280;67727;50.236;22.452;2023-04-25T08:36:18;98374.55;;;14.37;74.23
78431;BME280;67727;50.236;22.452;2023-04-25T08:38:46;98372.89;;;14.46;73.59
78431;BME280;67727;50.236;22.452;2023-04-25T08:41:13;98380.59;;;14.51;73.25
78431;BME280;67727;50.236;22.452;2023-04-25T08:43:42;98380.05;;;14.55;73.21
78431;BME280;67727;50.236;22.452;2023-04-25T08:46:11;98384.86;;;14.53;72.53
78431;BME280;67727;50.236;22.452;2023-04-25T08:48:40;98383.21;;;14.52;72.77
78431;BME280;67727;50.236;22.452;2023-04-25T08:51:07;98387.71;;;14.50;72.39
78431;BME280;67727;50.236;22.452;2023-04-25T08:53:35;98393.65;;;14.40;72.09
78431;BME280;67727;50.236;22.452;2023-04-25T08:56:02;98395.17;;;14.22;71.85
78431;BME280;67727;50.236;22.452;2023-04-25T08:58:29;98401.69;;;14.00;71.89
78431;BME280;67727;50.236;22.452;2023-04-25T09:00:57;98402.70;;;13.80;72.18
78431;BME280;67727;50.236;22.452;2023-04-25T09:03:23;98404.08;;;13.62;72.70
78431;BME280;67727;50.236;22.452;2023-04-25T09:05:51;98406.27;;;13.46;72.89
78431;BME280;67727;50.236;22.452;2023-04-25T09:08:17;98406.90;;;13.34;73.28
78431;BME280;67727;50.236;22.452;2023-04-25T09:10:44;98407.47;;;13.25;73.53
78431;BME280;67727;50.236;22.452;2023-04-25T09:13:14;98408.17;;;13.19;74.01
78431;BME280;67727;50.236;22.452;2023-04-25T09:15:57;98407.77;;;13.18;74.51
78431;BME280;67727;50.236;22.452;2023-04-25T09:18:32;98403.96;;;13.18;74.67
78431;BME280;67727;50.236;22.452;2023-04-25T09:21:08;98404.98;;;13.24;74.85
78431;BME280;67727;50.236;22.452;2023-04-25T09:23:47;98406.27;;;13.29;75.04
78431;BME280;67727;50.236;22.452;2023-04-25T09:26:15;98411.36;;;13.35;74.78
78431;BME280;67727;50.236;22.452;2023-04-25T09:28:43;98408.63;;;13.39;74.83
78431;BME280;67727;50.236;22.452;2023-04-25T09:31:10;98409.46;;;13.38;74.90
78431;BME280;67727;50.236;22.452;2023-04-25T09:33:38;98413.06;;;13.38;75.09
78431;BME280;67727;50.236;22.452;2023-04-25T09:36:09;98415.59;;;13.39;74.89
78431;BME280;67727;50.236;22.452;2023-04-25T09:38:44;98418.09;;;13.42;75.06
78431;BME280;67727;50.236;22.452;2023-04-25T09:41:12;98416.84;;;13.49;75.03
78431;BME280;67727;50.236;22.452;2023-04-25T09:43:39;98421.48;;;13.54;74.87
78431;BME280;67727;50.236;22.452;2023-04-25T09:46:10;98425.69;;;13.50;74.35
78431;BME280;67727;50.236;22.452;2023-04-25T09:48:37;98426.65;;;13.42;74.54
78431;BME280;67727;50.236;22.452;2023-04-25T09:51:09;98426.19;;;13.26;74.21
78431;BME280;67727;50.236;22.452;2023-04-25T09:53:41;98427.06;;;13.11;74.16
78431;BME280;67727;50.236;22.452;2023-04-25T09:56:10;98434.38;;;12.99;74.40
78431;BME280;67727;50.236;22.452;2023-04-25T09:58:39;98432.41;;;12.92;74.67
78431;BME280;67727;50.236;22.452;2023-04-25T10:01:08;98433.23;;;12.81;74.50
78431;BME280;67727;50.236;22.452;2023-04-25T10:03:37;98440.52;;;12.68;74.45
78431;BME280;67727;50.236;22.452;2023-04-25T10:06:12;98444.84;;;12.60;74.55
78431;BME280;67727;50.236;22.452;2023-04-25T10:08:41;98448.02;;;12.48;74.53
78431;BME280;67727;50.236;22.452;2023-04-25T10:11:08;98447.66;;;12.39;74.83
78431;BME280;67727;50.236;22.452;2023-04-25T10:13:35;98453.17;;;12.30;74.50
78431;BME280;67727;50.236;22.452;2023-04-25T10:16:04;98456.28;;;12.24;74.54
78431;BME280;67727;50.236;22.452;2023-04-25T10:18:32;98453.23;;;12.12;74.61
78431;BME280;67727;50.236;22.452;2023-04-25T10:21:02;98459.71;;;12.00;75.21
78431;BME280;67727;50.236;22.452;2023-04-25T10:23:31;98453.53;;;11.90;75.67
78431;BME280;67727;50.236;22.452;2023-04-25T10:26:01;98458.91;;;11.85;75.63
78431;BME280;67727;50.236;22.452;2023-04-25T10:28:28;98460.16;;;11.83;75.19
78431;BME280;67727;50.236;22.452;2023-04-25T10:33:39;98458.42;;;11.69;74.76
78431;BME280;67727;50.236;22.452;2023-04-25T10:36:12;98462.59;;;11.64;75.01
78431;BME280;67727;50.236;22.452;2023-04-25T10:38:39;98463.48;;;11.59;75.22
78431;BME280;67727;50.236;22.452;2023-04-25T10:41:08;98462.17;;;11.55;75.47
78431;BME280;67727;50.236;22.452;2023-04-25T10:43:43;98464.29;;;11.58;75.71
78431;BME280;67727;50.236;22.452;2023-04-25T10:46:15;98464.73;;;11.65;75.80
78431;BME280;67727;50.236;22.452;2023-04-25T10:53:58;98472.92;;;11.62;75.66
78431;BME280;67727;50.236;22.452;2023-04-25T10:56:39;98469.44;;;11.57;75.66
78431;BME280;67727;50.236;22.452;2023-04-25T10:59:14;98468.27;;;11.47;74.90
78431;BME280;67727;50.236;22.452;2023-04-25T11:02:11;98480.70;;;11.34;74.40
78431;BME280;67727;50.236;22.452;2023-04-25T11:04:40;98481.62;;;11.20;75.08
78431;BME280;67727;50.236;22.452;2023-04-25T11:07:33;98481.31;;;11.13;75.01
78431;BME280;67727;50.236;22.452;2023-04-25T11:10:05;98484.64;;;11.10;75.61
78431;BME280;67727;50.236;22.452;2023-04-25T11:12:32;98480.43;;;11.08;75.94
78431;BME280;67727;50.236;22.452;2023-04-25T11:15:06;98483.81;;;11.11;76.05
78431;BME280;67727;50.236;22.452;2023-04-25T11:17:33;98481.67;;;11.18;76.40
78431;BME280;67727;50.236;22.452;2023-04-25T11:20:01;98489.58;;;11.19;76.33
78431;BME280;67727;50.236;22.452;2023-04-25T11:22:28;98487.39;;;11.13;75.99
78431;BME280;67727;50.236;22.452;2023-04-25T11:24:55;98487.34;;;11.06;76.25
78431;BME280;67727;50.236;22.452;2023-04-25T11:27:22;98483.31;;;11.04;76.16
78431;BME280;67727;50.236;22.452;2023-04-25T11:29:51;98485.92;;;11.04;76.06
78431;BME280;67727;50.236;22.452;2023-04-25T11:32:18;98484.48;;;10.98;76.01
78431;BME280;67727;50.236;22.452;2023-04-25T11:34:46;98485.76;;;10.90;75.32
78431;BME280;67727;50.236;22.452;2023-04-25T11:37:13;98485.73;;;10.79;75.53
78431;BME280;67727;50.236;22.452;2023-04-25T11:39:44;98487.55;;;10.73;75.90
78431;BME280;67727;50.236;22.452;2023-04-25T11:42:13;98486.42;;;10.67;75.74
78431;BME280;67727;50.236;22.452;2023-04-25T11:44:43;98487.90;;;10.63;75.93
78431;BME280;67727;50.236;22.452;2023-04-25T11:47:10;98489.66;;;10.59;76.12
78431;BME280;67727;50.236;22.452;2023-04-25T11:49:39;98488.16;;;10.57;76.27
78431;BME280;67727;50.236;22.452;2023-04-25T11:52:06;98491.30;;;10.56;75.82
78431;BME280;67727;50.236;22.452;2023-04-25T11:54:37;98491.78;;;10.53;75.57
78431;BME280;67727;50.236;22.452;2023-04-25T11:57:04;98493.95;;;10.47;75.82
78431;BME280;67727;50.236;22.452;2023-04-25T11:59:31;98494.05;;;10.44;75.73
78431;BME280;67727;50.236;22.452;2023-04-25T12:01:58;98492.58;;;10.44;76.07
78431;BME280;67727;50.236;22.452;2023-04-25T12:04:25;98490.86;;;10.47;76.05
78431;BME280;67727;50.236;22.452;2023-04-25T12:06:53;98489.27;;;10.51;76.02
78431;BME280;67727;50.236;22.452;2023-04-25T12:09:28;98489.90;;;10.53;75.89
78431;BME280;67727;50.236;22.452;2023-04-25T12:11:57;98493.33;;;10.50;74.82
78431;BME280;67727;50.236;22.452;2023-04-25T12:14:28;98499.33;;;10.47;75.57
78431;BME280;67727;50.236;22.452;2023-04-25T12:16:56;98501.98;;;10.39;75.58
78431;BME280;67727;50.236;22.452;2023-04-25T12:19:32;98500.14;;;10.34;75.78
78431;BME280;67727;50.236;22.452;2023-04-25T12:22:03;98497.54;;;10.28;76.36
78431;BME280;67727;50.236;22.452;2023-04-25T12:24:45;98498.20;;;10.26;76.64
78431;BME280;67727;50.236;22.452;2023-04-25T12:27:14;98500.88;;;10.27;77.04
78431;BME280;67727;50.236;22.452;2023-04-25T12:29:55;98501.41;;;10.30;77.12
78431;BME280;67727;50.236;22.452;2023-04-25T12:32:23;98503.20;;;10.34;77.72
78431;BME280;67727;50.236;22.452;2023-04-25T12:34:50;98505.86;;;10.32;77.79
78431;BME280;67727;50.236;22.452;2023-04-25T12:37:17;98503.33;;;10.32;78.01
78431;BME280;67727;50.236;22.452;2023-04-25T12:39:43;98505.69;;;10.31;77.65
78431;BME280;67727;50.236;22.452;2023-04-25T12:42:10;98506.53;;;10.30;77.86
78431;BME280;67727;50.236;22.452;2023-04-25T12:44:40;98507.56;;;10.31;78.21
78431;BME280;67727;50.236;22.452;2023-04-25T12:47:07;98512.98;;;10.34;77.85
78431;BME280;67727;50.236;22.452;2023-04-25T12:49:34;98508.61;;;10.34;77.34
78431;BME280;67727;50.236;22.452;2023-04-25T12:52:01;98510.54;;;10.28;77.23
78431;BME280;67727;50.236;22.452;2023-04-25T12:54:28;98507.08;;;10.24;77.37
78431;BME280;67727;50.236;22.452;2023-04-25T12:56:55;98504.81;;;10.23;77.50
78431;BME280;67727;50.236;22.452;2023-04-25T12:59:21;98506.10;;;10.17;76.64
78431;BME280;67727;50.236;22.452;2023-04-25T13:01:51;98503.81;;;10.10;76.66